PAKWPAFE

Guest
Details From PAKW - KLAWOCK
To PAFE - KAKE
Flight Number -
Tags generated
Created
Modified
Stats Distance 88 nm / 163 km
Max Altitude 5,000 ft / 1,524 m
Waypoints 3
Social Downloads 2
Likes 1
Share VATSIM

Download

Looking for another format? Having issues loading an existing format? Contact us
Advertisement - Login to hide

Notes

Basic altitude profile: - Ascent Rate: 500ft/min - Ascent Speed: 90kts - Cruise Altitude: 5000ft - Cruise Speed: 110kts - Descent Rate: 800ft/min - Descent Speed: 110kts

Route

PAKW TOKEE PAFE

ID Type Via Altitude Latitude Longitude Leg Dist Tot Dist Heading (true) Name
O PAKW APT - 0 ft / 0 m 55.57923˚ -133.07600˚ - 0 nm - KLAWOCK
TOKEE FIX - 5,000 ft / 1,524 m 55.91250˚ -133.37881˚ 22 nm 22 nm 333° / 333° -
O PAFE APT - 0 ft / 0 m 56.96136˚ -133.91026˚ 65 nm 87 nm 345° / 344° KAKE

Altitude Profile

Advertisement - Login to hide

PAKW

Details ICAO PAKW (KLW)
Name KLAWOCK
Region USA (Alaska)
Timezone Unknown (UTC+0.0)
Stats Elevation 80 ft / 24 m (AMSL)
Location 55.579232° -133.075997°
Runways 1
Magnetic Variation 18.439° E

METAR

PAKW 261453Z AUTO 00000KT 10SM -RA SCT033 BKN043 OVC075 07/06 A2975 RMK AO2 RAB00 SLP073 P0001 60001 T00720061 56030 TSNO

Decode

TAF

PAKW 261127Z 2612/2712 15007KT P6SM -SHRA SCT030 BKN050 OVC070 FM261400 14010KT 6SM -RA BR SCT015 OVC025 WS020/14025KT FM261600 13012G20KT 5SM -RA BR BKN015 OVC025 WS020/14045KT FM270400 13010KT P6SM -SHRA SCT015 BKN025 OVC040 FM271000 19007KT P6SM VCSH SCT025 BKN050 OVC070 AMD LTD TO CLD VIS AND WIND

Decode

Departure Runways

ID Width Length Bearing (true) Bearing (mag) Surface Threshold Offset Overrun Length
02 100 ft / 30 m 4,991 ft / 1,521 m 39.06° 20.62° Asphalt 0 ft / 0 m 0 ft / 0 m
20 100 ft / 30 m 4,991 ft / 1,521 m 219.07° 200.63° Asphalt 0 ft / 0 m 0 ft / 0 m

PAFE

Details ICAO PAFE (AFE)
Name KAKE
Region USA (Alaska)
Timezone America/Juneau (UTC-8.0)
Stats Elevation 172 ft / 52 m (AMSL)
Location 56.961362° -133.910261°
Runways 1
Magnetic Variation 18.731° E

METAR

PAFE 261521Z AUTO 10005KT 10SM -RA SCT027 BKN033 OVC080 06/04 A2979 RMK AO2 P0000 $

Decode

TAF

Not found

Destination Runways

ID Width Length Bearing (true) Bearing (mag) Surface Threshold Offset Overrun Length
10 100 ft / 30 m 3,990 ft / 1,216 m 129.93° 111.20° Asphalt 0 ft / 0 m 295 ft / 90 m
28 100 ft / 30 m 3,990 ft / 1,216 m 309.94° 291.21° Asphalt 1,000 ft / 305 m 295 ft / 90 m

Popular Alternatives